sensor_id;sensor_type;location;lat;lon;timestamp;pressure;altitude;pressure_sealevel;temperature;humidity
11643;BME280;5877;50.930;6.918;2022-10-30T00:00:43;101047.44;;;15.69;64.79
11643;BME280;5877;50.930;6.918;2022-10-30T00:03:11;101174.84;;;16.53;64.79
11643;BME280;5877;50.930;6.918;2022-10-30T00:05:43;100862.13;;;14.55;64.64
11643;BME280;5877;50.930;6.918;2022-10-30T00:08:11;101030.19;;;15.67;64.97
11643;BME280;5877;50.930;6.918;2022-10-30T00:10:39;101174.63;;;16.54;64.92
11643;BME280;5877;50.930;6.918;2022-10-30T00:13:06;101157.91;;;16.54;64.86
11643;BME280;5877;50.930;6.918;2022-10-30T00:15:32;101089.56;;;16.11;64.58
11643;BME280;5877;50.930;6.918;2022-10-30T00:17:59;101183.13;;;16.56;65.06
11643;BME280;5877;50.930;6.918;2022-10-30T00:20:26;101112.34;;;16.12;65.06
11643;BME280;5877;50.930;6.918;2022-10-30T00:22:53;101010.34;;;15.41;65.26
11643;BME280;5877;50.930;6.918;2022-10-30T00:25:20;101129.72;;;16.19;65.43
11643;BME280;5877;50.930;6.918;2022-10-30T00:27:46;100968.66;;;15.19;65.52
11643;BME280;5877;50.930;6.918;2022-10-30T00:30:13;100987.28;;;15.24;65.18
11643;BME280;5877;50.930;6.918;2022-10-30T00:32:41;101026.53;;;15.56;65.19
11643;BME280;5877;50.930;6.918;2022-10-30T00:35:09;100876.25;;;14.49;65.27
11643;BME280;5877;50.930;6.918;2022-10-30T00:37:37;101182.59;;;16.43;65.21
11643;BME280;5877;50.930;6.918;2022-10-30T00:40:05;101064.38;;;15.56;65.91
11643;BME280;5877;50.930;6.918;2022-10-30T00:42:32;101105.88;;;15.79;65.85
11643;BME280;5877;50.930;6.918;2022-10-30T00:44:59;101181.84;;;16.31;66.06
11643;BME280;5877;50.930;6.918;2022-10-30T00:50:29;101167.69;;;16.25;66.56
11643;BME280;5877;50.930;6.918;2022-10-30T00:53:02;101172.66;;;16.21;66.62
11643;BME280;5877;50.930;6.918;2022-10-30T00:55:36;101121.25;;;15.94;66.62
11643;BME280;5877;50.930;6.918;2022-10-30T00:58:08;101178.19;;;16.20;66.48
11643;BME280;5877;50.930;6.918;2022-10-30T01:00:38;101137.03;;;16.01;66.49
11643;BME280;5877;50.930;6.918;2022-10-30T01:03:06;100816.88;;;13.93;66.70
11643;BME280;5877;50.930;6.918;2022-10-30T01:05:34;101050.16;;;15.34;66.77
11643;BME280;5877;50.930;6.918;2022-10-30T01:08:02;100765.19;;;13.51;66.87
11643;BME280;5877;50.930;6.918;2022-10-30T01:10:29;101061.31;;;15.36;67.15
11643;BME280;5877;50.930;6.918;2022-10-30T01:12:57;101100.50;;;15.63;67.25
11643;BME280;5877;50.930;6.918;2022-10-30T01:15:32;101073.72;;;15.47;67.21
11643;BME280;5877;50.930;6.918;2022-10-30T01:21:59;101169.03;;;15.99;67.28
11643;BME280;5877;50.930;6.918;2022-10-30T01:25:13;101160.28;;;15.99;67.64
11643;BME280;5877;50.930;6.918;2022-10-30T01:28:07;101085.09;;;15.48;67.50
11643;BME280;5877;50.930;6.918;2022-10-30T01:38:53;101171.13;;;15.74;68.40
11643;BME280;5877;50.930;6.918;2022-10-30T01:41:22;100929.81;;;14.15;68.30
11643;BME280;5877;50.930;6.918;2022-10-30T01:43:53;100868.88;;;13.63;68.83
11643;BME280;5877;50.930;6.918;2022-10-30T01:52:00;101176.31;;;15.34;70.01
11643;BME280;5877;50.930;6.918;2022-10-30T01:57:39;101183.66;;;15.20;70.50
11643;BME280;5877;50.930;6.918;2022-10-30T02:00:13;101186.63;;;15.12;71.02
11643;BME280;5877;50.930;6.918;2022-10-30T02:02:45;100864.25;;;12.98;71.17
11643;BME280;5877;50.930;6.918;2022-10-30T02:05:20;100935.44;;;13.47;71.43
11643;BME280;5877;50.930;6.918;2022-10-30T02:07:53;101031.91;;;14.03;71.64
11643;BME280;5877;50.930;6.918;2022-10-30T02:10:21;100713.81;;;12.03;71.65
11643;BME280;5877;50.930;6.918;2022-10-30T02:12:48;101166.56;;;14.81;72.15
11643;BME280;5877;50.930;6.918;2022-10-30T02:15:16;101169.06;;;14.76;72.43
11643;BME280;5877;50.930;6.918;2022-10-30T02:17:43;100666.69;;;11.59;72.38
11643;BME280;5877;50.930;6.918;2022-10-30T02:20:23;101159.28;;;14.65;72.88
11643;BME280;5877;50.930;6.918;2022-10-30T02:22:51;101150.41;;;14.59;73.18
11643;BME280;5877;50.930;6.918;2022-10-30T02:25:28;101027.84;;;13.88;72.74
11643;BME280;5877;50.930;6.918;2022-10-30T02:27:55;101081.25;;;14.02;73.37
11643;BME280;5877;50.930;6.918;2022-10-30T02:30:22;101141.78;;;14.52;73.46
11643;BME280;5877;50.930;6.918;2022-10-30T02:32:48;100988.69;;;13.55;73.48
11643;BME280;5877;50.930;6.918;2022-10-30T02:35:16;101121.91;;;14.31;73.56
11643;BME280;5877;50.930;6.918;2022-10-30T02:37:43;100742.81;;;11.79;73.69
11643;BME280;5877;50.930;6.918;2022-10-30T02:40:12;101152.28;;;14.22;74.00
11643;BME280;5877;50.930;6.918;2022-10-30T02:42:39;101088.84;;;13.62;74.30
11643;BME280;5877;50.930;6.918;2022-10-30T02:45:06;100854.00;;;12.11;74.31
11643;BME280;5877;50.930;6.918;2022-10-30T02:47:33;100868.19;;;12.10;75.04
11643;BME280;5877;50.930;6.918;2022-10-30T02:50:00;100972.84;;;12.82;75.26
11643;BME280;5877;50.930;6.918;2022-10-30T02:52:26;100845.22;;;11.98;75.26
11643;BME280;5877;50.930;6.918;2022-10-30T02:54:53;100710.09;;;11.18;75.15
11643;BME280;5877;50.930;6.918;2022-10-30T02:57:19;100890.63;;;12.12;75.37
11643;BME280;5877;50.930;6.918;2022-10-30T02:59:46;100809.41;;;11.66;75.23
11643;BME280;5877;50.930;6.918;2022-10-30T03:02:13;100671.38;;;10.76;75.24
11643;BME280;5877;50.930;6.918;2022-10-30T03:04:40;100901.09;;;12.19;75.30
11643;BME280;5877;50.930;6.918;2022-10-30T03:07:09;101167.91;;;13.87;75.47
11643;BME280;5877;50.930;6.918;2022-10-30T03:09:36;100989.09;;;12.79;75.11
11643;BME280;5877;50.930;6.918;2022-10-30T03:12:03;101104.94;;;13.54;75.34
11643;BME280;5877;50.930;6.918;2022-10-30T03:14:29;101152.75;;;13.82;75.68
11643;BME280;5877;50.930;6.918;2022-10-30T03:16:56;101103.03;;;13.43;75.75
11643;BME280;5877;50.930;6.918;2022-10-30T03:19:23;101117.84;;;13.62;75.68
11643;BME280;5877;50.930;6.918;2022-10-30T03:21:52;101148.94;;;13.78;75.87
11643;BME280;5877;50.930;6.918;2022-10-30T03:24:19;100959.97;;;12.49;76.03
11643;BME280;5877;50.930;6.918;2022-10-30T03:26:46;101096.88;;;13.30;75.78
11643;BME280;5877;50.930;6.918;2022-10-30T03:29:13;100946.97;;;12.29;76.25
11643;BME280;5877;50.930;6.918;2022-10-30T03:31:40;101157.84;;;13.59;76.34
11643;BME280;5877;50.930;6.918;2022-10-30T03:34:17;100993.13;;;12.57;76.29
11643;BME280;5877;50.930;6.918;2022-10-30T03:36:43;101069.91;;;13.04;76.20
11643;BME280;5877;50.930;6.918;2022-10-30T03:39:11;100941.16;;;12.21;76.23
11643;BME280;5877;50.930;6.918;2022-10-30T03:41:41;101096.06;;;13.05;76.31
11643;BME280;5877;50.930;6.918;2022-10-30T03:44:09;100856.47;;;11.43;76.27
11643;BME280;5877;50.930;6.918;2022-10-30T03:46:35;100953.81;;;12.06;76.45
11643;BME280;5877;50.930;6.918;2022-10-30T03:49:18;100995.72;;;12.07;76.85
11643;BME280;5877;50.930;6.918;2022-10-30T03:51:44;101061.16;;;12.60;77.37
11643;BME280;5877;50.930;6.918;2022-10-30T03:54:11;101096.63;;;12.89;76.93
11643;BME280;5877;50.930;6.918;2022-10-30T03:56:38;101169.66;;;13.31;77.29
11643;BME280;5877;50.930;6.918;2022-10-30T03:59:06;101102.75;;;12.83;77.36
11643;BME280;5877;50.930;6.918;2022-10-30T04:01:37;101122.97;;;12.89;77.46
11643;BME280;5877;50.930;6.918;2022-10-30T04:04:04;101187.53;;;13.29;77.48
11643;BME280;5877;50.930;6.918;2022-10-30T04:06:31;100775.56;;;10.75;77.23
11643;BME280;5877;50.930;6.918;2022-10-30T04:08:57;101106.78;;;12.85;77.39
11643;BME280;5877;50.930;6.918;2022-10-30T04:11:24;101004.75;;;12.18;77.15
11643;BME280;5877;50.930;6.918;2022-10-30T04:13:51;101193.22;;;13.26;77.76
11643;BME280;5877;50.930;6.918;2022-10-30T04:16:18;101027.22;;;12.20;77.94
11643;BME280;5877;50.930;6.918;2022-10-30T04:18:44;101121.06;;;12.71;77.80
11643;BME280;5877;50.930;6.918;2022-10-30T04:21:11;100908.47;;;11.34;77.62
11643;BME280;5877;50.930;6.918;2022-10-30T04:23:38;101030.56;;;12.02;78.26
11643;BME280;5877;50.930;6.918;2022-10-30T04:26:04;100870.84;;;10.95;78.55
11643;BME280;5877;50.930;6.918;2022-10-30T04:28:35;101079.97;;;12.32;78.30
11643;BME280;5877;50.930;6.918;2022-10-30T04:31:02;101185.25;;;13.01;78.98
11643;BME280;5877;50.930;6.918;2022-10-30T04:33:30;101169.78;;;12.87;79.21
11643;BME280;5877;50.930;6.918;2022-10-30T04:35:57;100970.59;;;11.66;78.85
11643;BME280;5877;50.930;6.918;2022-10-30T04:38:24;101188.91;;;13.00;78.96
11643;BME280;5877;50.930;6.918;2022-10-30T04:40:51;100781.78;;;10.36;78.60
11643;BME280;5877;50.930;6.918;2022-10-30T04:43:18;101116.56;;;12.47;79.07
11643;BME280;5877;50.930;6.918;2022-10-30T04:45:48;100926.56;;;11.11;79.35
11643;BME280;5877;50.930;6.918;2022-10-30T04:48:16;101117.75;;;12.51;79.22
11643;BME280;5877;50.930;6.918;2022-10-30T04:50:45;101057.84;;;12.08;79.46
11643;BME280;5877;50.930;6.918;2022-10-30T04:53:19;101190.22;;;12.91;79.75
11643;BME280;5877;50.930;6.918;2022-10-30T04:55:53;101188.81;;;12.89;79.25
11643;BME280;5877;50.930;6.918;2022-10-30T04:58:20;101053.22;;;12.03;79.51
11643;BME280;5877;50.930;6.918;2022-10-30T05:00:53;101126.03;;;12.54;79.52
11643;BME280;5877;50.930;6.918;2022-10-30T05:03:28;101182.97;;;12.87;79.48
11643;BME280;5877;50.930;6.918;2022-10-30T05:08:24;100978.34;;;11.55;79.02
11643;BME280;5877;50.930;6.918;2022-10-30T05:10:52;101183.94;;;12.92;79.34
11643;BME280;5877;50.930;6.918;2022-10-30T05:13:20;101177.06;;;12.91;79.17
11643;BME280;5877;50.930;6.918;2022-10-30T05:15:46;101016.19;;;11.98;79.26
11643;BME280;5877;50.930;6.918;2022-10-30T05:18:13;100883.44;;;11.25;79.21
11643;BME280;5877;50.930;6.918;2022-10-30T05:20:40;101064.94;;;12.39;78.72
11643;BME280;5877;50.930;6.918;2022-10-30T05:23:08;100970.56;;;11.80;79.14
11643;BME280;5877;50.930;6.918;2022-10-30T05:25:35;101164.06;;;12.96;78.84
11643;BME280;5877;50.930;6.918;2022-10-30T05:28:05;100994.38;;;11.91;78.73
11643;BME280;5877;50.930;6.918;2022-10-30T05:30:39;101039.97;;;12.17;78.84
11643;BME280;5877;50.930;6.918;2022-10-30T05:33:16;101089.41;;;12.46;78.68
11643;BME280;5877;50.930;6.918;2022-10-30T05:35:43;100776.28;;;10.51;78.50
11643;BME280;5877;50.930;6.918;2022-10-30T05:38:10;101149.53;;;12.87;78.96
11643;BME280;5877;50.930;6.918;2022-10-30T05:40:37;101085.22;;;12.39;78.87
11643;BME280;5877;50.930;6.918;2022-10-30T05:43:04;101145.69;;;12.83;78.90
11643;BME280;5877;50.930;6.918;2022-10-30T05:45:32;101145.66;;;12.90;78.76
11643;BME280;5877;50.930;6.918;2022-10-30T05:48:04;101142.59;;;12.93;78.77
11643;BME280;5877;50.930;6.918;2022-10-30T05:50:37;100960.06;;;11.73;78.23
11643;BME280;5877;50.930;6.918;2022-10-30T05:53:30;101120.63;;;12.74;78.45
11643;BME280;5877;50.930;6.918;2022-10-30T05:55:58;100781.53;;;10.51;78.46
11643;BME280;5877;50.930;6.918;2022-10-30T05:58:29;100918.53;;;11.44;78.67
11643;BME280;5877;50.930;6.918;2022-10-30T06:01:04;101062.53;;;12.38;78.45
11643;BME280;5877;50.930;6.918;2022-10-30T06:03:41;101034.19;;;12.01;78.59
11643;BME280;5877;50.930;6.918;2022-10-30T06:06:10;101127.47;;;12.82;78.06
11643;BME280;5877;50.930;6.918;2022-10-30T06:08:36;101001.19;;;12.06;77.77
11643;BME280;5877;50.930;6.918;2022-10-30T06:11:35;100992.34;;;11.93;78.19
11643;BME280;5877;50.930;6.918;2022-10-30T06:14:03;100973.81;;;11.82;78.37
11643;BME280;5877;50.930;6.918;2022-10-30T06:16:40;101071.41;;;12.43;78.19
11643;BME280;5877;50.930;6.918;2022-10-30T06:19:23;101083.09;;;12.54;77.78
11643;BME280;5877;50.930;6.918;2022-10-30T06:21:51;100600.03;;;9.44;77.41
11643;BME280;5877;50.930;6.918;2022-10-30T06:24:26;101131.72;;;12.83;78.33
11643;BME280;5877;50.930;6.918;2022-10-30T06:29:19;101092.38;;;12.56;77.47
11643;BME280;5877;50.930;6.918;2022-10-30T06:31:46;101150.88;;;12.96;77.66
11643;BME280;5877;50.930;6.918;2022-10-30T06:34:12;101074.94;;;12.62;77.73
11643;BME280;5877;50.930;6.918;2022-10-30T06:36:40;101150.66;;;12.98;77.88
11643;BME280;5877;50.930;6.918;2022-10-30T06:39:07;100879.19;;;11.30;77.83
11643;BME280;5877;50.930;6.918;2022-10-30T06:41:41;101141.41;;;12.89;77.55
11643;BME280;5877;50.930;6.918;2022-10-30T06:44:26;101155.84;;;13.05;77.22
11643;BME280;5877;50.930;6.918;2022-10-30T06:46:53;101025.00;;;12.17;77.37
11643;BME280;5877;50.930;6.918;2022-10-30T06:49:19;101071.38;;;12.50;77.34
11643;BME280;5877;50.930;6.918;2022-10-30T06:51:47;101108.47;;;12.73;77.12
11643;BME280;5877;50.930;6.918;2022-10-30T06:54:16;101155.47;;;13.01;77.39
11643;BME280;5877;50.930;6.918;2022-10-30T06:56:58;101178.44;;;13.25;77.04
11643;BME280;5877;50.930;6.918;2022-10-30T06:59:43;101084.19;;;12.71;76.46
11643;BME280;5877;50.930;6.918;2022-10-30T07:02:28;101111.56;;;12.95;76.24
11643;BME280;5877;50.930;6.918;2022-10-30T07:05:00;100886.09;;;11.63;75.45
11643;BME280;5877;50.930;6.918;2022-10-30T07:07:27;101179.03;;;13.71;75.09
11643;BME280;5877;50.930;6.918;2022-10-30T07:09:54;101119.34;;;13.33;74.84
11643;BME280;5877;50.930;6.918;2022-10-30T07:12:36;101179.66;;;13.91;74.26
11643;BME280;5877;50.930;6.918;2022-10-30T07:15:19;100909.38;;;12.47;73.57
11643;BME280;5877;50.930;6.918;2022-10-30T07:18:04;101047.94;;;13.89;71.21
11643;BME280;5877;50.930;6.918;2022-10-30T07:20:34;101178.97;;;15.34;69.08
11643;BME280;5877;50.930;6.918;2022-10-30T07:23:02;101179.50;;;15.94;67.09
11643;BME280;5877;50.930;6.918;2022-10-30T07:25:29;101155.69;;;16.34;64.96
11643;BME280;5877;50.930;6.918;2022-10-30T07:28:05;101097.72;;;16.38;63.34
11643;BME280;5877;50.930;6.918;2022-10-30T07:30:40;101120.72;;;16.77;62.46
11643;BME280;5877;50.930;6.918;2022-10-30T07:33:16;101138.72;;;17.09;61.52
11643;BME280;5877;50.930;6.918;2022-10-30T07:36:12;101175.25;;;17.74;60.42
11643;BME280;5877;50.930;6.918;2022-10-30T07:38:47;101170.78;;;17.96;59.26
11643;BME280;5877;50.930;6.918;2022-10-30T07:41:32;101167.09;;;18.24;58.39
11643;BME280;5877;50.930;6.918;2022-10-30T07:44:37;101090.53;;;18.21;56.93
11643;BME280;5877;50.930;6.918;2022-10-30T07:47:28;101080.66;;;18.43;55.89
11643;BME280;5877;50.930;6.918;2022-10-30T07:50:01;101076.63;;;18.41;55.63
11643;BME280;5877;50.930;6.918;2022-10-30T07:52:31;101093.66;;;18.67;55.32
11643;BME280;5877;50.930;6.918;2022-10-30T07:54:58;101173.16;;;18.95;55.62
11643;BME280;5877;50.930;6.918;2022-10-30T07:57:45;101136.19;;;18.67;55.76
11643;BME280;5877;50.930;6.918;2022-10-30T08:00:30;101064.69;;;18.11;55.99
11643;BME280;5877;50.930;6.918;2022-10-30T08:03:07;101001.97;;;17.83;55.82
11643;BME280;5877;50.930;6.918;2022-10-30T08:05:54;101005.69;;;18.09;55.01
11643;BME280;5877;50.930;6.918;2022-10-30T08:08:27;101176.16;;;19.41;54.15
11643;BME280;5877;50.930;6.918;2022-10-30T08:11:06;101168.09;;;19.31;54.24
11643;BME280;5877;50.930;6.918;2022-10-30T08:13:33;100994.00;;;18.74;52.88
11643;BME280;5877;50.930;6.918;2022-10-30T08:16:00;101151.16;;;19.89;52.49
11643;BME280;5877;50.930;6.918;2022-10-30T08:18:26;101172.69;;;20.40;51.72
11643;BME280;5877;50.930;6.918;2022-10-30T08:20:53;101016.13;;;19.32;51.66
11643;BME280;5877;50.930;6.918;2022-10-30T08:23:20;101145.13;;;20.14;51.83
11643;BME280;5877;50.930;6.918;2022-10-30T08:25:47;101174.34;;;19.89;52.69
11643;BME280;5877;50.930;6.918;2022-10-30T08:28:14;101162.06;;;19.83;52.56
11643;BME280;5877;50.930;6.918;2022-10-30T08:30:43;101150.56;;;19.77;52.89
11643;BME280;5877;50.930;6.918;2022-10-30T08:33:13;101010.28;;;18.88;52.63
11643;BME280;5877;50.930;6.918;2022-10-30T08:35:56;101090.47;;;19.49;52.73
11643;BME280;5877;50.930;6.918;2022-10-30T08:38:26;101092.81;;;19.93;51.76
11643;BME280;5877;50.930;6.918;2022-10-30T08:41:08;101175.81;;;20.32;51.50
11643;BME280;5877;50.930;6.918;2022-10-30T08:43:42;101173.34;;;20.10;52.46
11643;BME280;5877;50.930;6.918;2022-10-30T08:46:09;100947.91;;;18.64;52.53
11643;BME280;5877;50.930;6.918;2022-10-30T08:48:35;101090.44;;;19.44;52.81
11643;BME280;5877;50.930;6.918;2022-10-30T08:51:02;101165.50;;;19.78;52.79
11643;BME280;5877;50.930;6.918;2022-10-30T08:53:35;101081.63;;;19.33;53.16
11643;BME280;5877;50.930;6.918;2022-10-30T08:56:07;101033.78;;;19.01;53.21
11643;BME280;5877;50.930;6.918;2022-10-30T08:58:49;101156.09;;;19.65;53.47
11643;BME280;5877;50.930;6.918;2022-10-30T09:01:16;101156.97;;;19.39;54.25
11643;BME280;5877;50.930;6.918;2022-10-30T09:04:03;101154.69;;;19.16;55.22
11643;BME280;5877;50.930;6.918;2022-10-30T09:06:48;101129.81;;;19.00;54.91
11643;BME280;5877;50.930;6.918;2022-10-30T09:09:43;101147.88;;;18.66;55.90
11643;BME280;5877;50.930;6.918;2022-10-30T09:12:10;101142.53;;;18.61;56.31
11643;BME280;5877;50.930;6.918;2022-10-30T09:14:41;101078.34;;;18.25;56.50
11643;BME280;5877;50.930;6.918;2022-10-30T09:17:09;101143.72;;;18.75;56.13
11643;BME280;5877;50.930;6.918;2022-10-30T09:19:37;101059.06;;;18.08;56.32
11643;BME280;5877;50.930;6.918;2022-10-30T09:22:05;100726.88;;;15.99;56.34
11643;BME280;5877;50.930;6.918;2022-10-30T09:24:36;100813.44;;;16.98;55.54
11643;BME280;5877;50.930;6.918;2022-10-30T09:27:27;101147.25;;;19.18;55.20
11643;BME280;5877;50.930;6.918;2022-10-30T09:29:55;101003.59;;;18.11;55.32
11643;BME280;5877;50.930;6.918;2022-10-30T09:32:27;101035.47;;;18.11;56.39
11643;BME280;5877;50.930;6.918;2022-10-30T09:35:07;101130.41;;;18.75;56.54
11643;BME280;5877;50.930;6.918;2022-10-30T09:37:37;101082.75;;;18.41;56.36
11643;BME280;5877;50.930;6.918;2022-10-30T09:42:49;100962.25;;;17.67;56.51
11643;BME280;5877;50.930;6.918;2022-10-30T09:53:55;101131.25;;;18.54;57.37
11643;BME280;5877;50.930;6.918;2022-10-30T09:56:42;101129.41;;;18.54;57.88
11643;BME280;5877;50.930;6.918;2022-10-30T10:02:00;101135.47;;;18.49;57.54
11643;BME280;5877;50.930;6.918;2022-10-30T10:04:38;101024.63;;;17.91;56.96
11643;BME280;5877;50.930;6.918;2022-10-30T10:07:34;101011.00;;;17.82;57.29
11643;BME280;5877;50.930;6.918;2022-10-30T10:10:44;101136.00;;;18.73;57.25
11643;BME280;5877;50.930;6.918;2022-10-30T10:13:25;100926.81;;;17.56;56.73
11643;BME280;5877;50.930;6.918;2022-10-30T10:16:22;101072.47;;;18.50;56.89
11643;BME280;5877;50.930;6.918;2022-10-30T10:19:13;101132.53;;;19.05;56.47
11643;BME280;5877;50.930;6.918;2022-10-30T10:21:45;101004.13;;;18.45;55.66
11643;BME280;5877;50.930;6.918;2022-10-30T10:24:21;101089.16;;;19.04;55.42
11643;BME280;5877;50.930;6.918;2022-10-30T10:26:57;101042.59;;;18.65;55.39
11643;BME280;5877;50.930;6.918;2022-10-30T10:34:56;101040.88;;;18.86;55.46
11643;BME280;5877;50.930;6.918;2022-10-30T10:37:44;101062.13;;;19.23;55.47
11643;BME280;5877;50.930;6.918;2022-10-30T10:40:21;101108.72;;;19.72;55.03
11643;BME280;5877;50.930;6.918;2022-10-30T10:43:19;101109.81;;;19.76;54.80
11643;BME280;5877;50.930;6.918;2022-10-30T10:51:43;101097.88;;;19.89;54.12
11643;BME280;5877;50.930;6.918;2022-10-30T10:54:15;101115.25;;;20.07;53.99
11643;BME280;5877;50.930;6.918;2022-10-30T10:56:46;101116.34;;;20.21;53.99
11643;BME280;5877;50.930;6.918;2022-10-30T11:05:33;101102.31;;;20.56;52.05
11643;BME280;5877;50.930;6.918;2022-10-30T11:08:18;100992.09;;;19.95;51.58
11643;BME280;5877;50.930;6.918;2022-10-30T11:10:49;101046.78;;;20.38;51.47
11643;BME280;5877;50.930;6.918;2022-10-30T11:13:16;101059.88;;;20.39;51.57
11643;BME280;5877;50.930;6.918;2022-10-30T11:15:59;101029.47;;;20.30;51.24
11643;BME280;5877;50.930;6.918;2022-10-30T11:18:30;101064.44;;;20.59;50.88
11643;BME280;5877;50.930;6.918;2022-10-30T11:21:02;101090.31;;;20.79;51.33
11643;BME280;5877;50.930;6.918;2022-10-30T11:26:01;101057.22;;;20.55;51.93
11643;BME280;5877;50.930;6.918;2022-10-30T11:29:00;101063.63;;;20.74;52.34
11643;BME280;5877;50.930;6.918;2022-10-30T11:31:31;101071.59;;;20.89;52.25
11643;BME280;5877;50.930;6.918;2022-10-30T11:36:49;101008.66;;;20.78;51.36
11643;BME280;5877;50.930;6.918;2022-10-30T11:39:32;101077.16;;;21.28;51.14
11643;BME280;5877;50.930;6.918;2022-10-30T11:42:09;101072.56;;;21.44;50.81
11643;BME280;5877;50.930;6.918;2022-10-30T11:44:42;100973.72;;;20.80;50.95
11643;BME280;5877;50.930;6.918;2022-10-30T11:47:11;100826.06;;;20.20;50.10
11643;BME280;5877;50.930;6.918;2022-10-30T11:49:53;101069.44;;;21.86;49.33
11643;BME280;5877;50.930;6.918;2022-10-30T11:52:23;100860.91;;;20.69;48.81
11643;BME280;5877;50.930;6.918;2022-10-30T11:54:57;100892.19;;;21.07;48.74
11643;BME280;5877;50.930;6.918;2022-10-30T11:57:45;101070.31;;;22.26;48.68
11643;BME280;5877;50.930;6.918;2022-10-30T12:00:25;101076.09;;;21.94;48.00
11643;BME280;5877;50.930;6.918;2022-10-30T12:02:54;100845.78;;;20.39;48.25
11643;BME280;5877;50.930;6.918;2022-10-30T12:05:36;101077.97;;;21.88;48.71
11643;BME280;5877;50.930;6.918;2022-10-30T12:13:20;101067.09;;;21.75;49.11
11643;BME280;5877;50.930;6.918;2022-10-30T12:15:50;101058.25;;;21.79;48.93
11643;BME280;5877;50.930;6.918;2022-10-30T12:18:28;100841.75;;;20.47;48.82
11643;BME280;5877;50.930;6.918;2022-10-30T12:20:56;101060.00;;;21.99;48.78
11643;BME280;5877;50.930;6.918;2022-10-30T12:23:25;100988.00;;;21.74;48.17
11643;BME280;5877;50.930;6.918;2022-10-30T12:26:13;100745.53;;;20.43;47.81
11643;BME280;5877;50.930;6.918;2022-10-30T12:28:51;100959.50;;;21.98;47.06
11643;BME280;5877;50.930;6.918;2022-10-30T12:31:23;100957.03;;;22.12;46.37
11643;BME280;5877;50.930;6.918;2022-10-30T12:34:22;101065.28;;;22.53;47.03
11643;BME280;5877;50.930;6.918;2022-10-30T12:37:25;100983.56;;;22.03;46.67
11643;BME280;5877;50.930;6.918;2022-10-30T12:40:04;101055.47;;;22.44;46.58
11643;BME280;5877;50.930;6.918;2022-10-30T12:42:50;101053.63;;;22.39;46.90
11643;BME280;5877;50.930;6.918;2022-10-30T12:45:24;101053.81;;;22.48;46.66
11643;BME280;5877;50.930;6.918;2022-10-30T12:47:58;100976.09;;;21.95;46.99
11643;BME280;5877;50.930;6.918;2022-10-30T12:50:41;100627.94;;;19.80;46.87
11643;BME280;5877;50.930;6.918;2022-10-30T12:55:50;100928.09;;;21.80;46.23
11643;BME280;5877;50.930;6.918;2022-10-30T12:58:26;100974.59;;;22.23;45.81
11643;BME280;5877;50.930;6.918;2022-10-30T13:03:57;101014.13;;;22.60;45.50
11643;BME280;5877;50.930;6.918;2022-10-30T13:06:30;100815.16;;;21.35;45.15
11643;BME280;5877;50.930;6.918;2022-10-30T13:09:17;100946.47;;;22.25;45.08
11643;BME280;5877;50.930;6.918;2022-10-30T13:11:50;100906.97;;;22.17;44.52
11643;BME280;5877;50.930;6.918;2022-10-30T13:14:29;100874.34;;;21.86;44.82
11643;BME280;5877;50.930;6.918;2022-10-30T13:16:57;100953.81;;;22.44;45.06
11643;BME280;5877;50.930;6.918;2022-10-30T13:19:24;101019.66;;;22.97;44.99
11643;BME280;5877;50.930;6.918;2022-10-30T13:22:06;100697.59;;;20.77;44.31
11643;BME280;5877;50.930;6.918;2022-10-30T13:24:48;101029.84;;;22.95;43.86
11643;BME280;5877;50.930;6.918;2022-10-30T13:27:20;101012.53;;;22.88;44.28
11643;BME280;5877;50.930;6.918;2022-10-30T13:30:03;101026.78;;;22.83;44.75
11643;BME280;5877;50.930;6.918;2022-10-30T13:35:33;101015.56;;;22.81;44.33
11643;BME280;5877;50.930;6.918;2022-10-30T13:40:59;100904.50;;;21.92;44.22
11643;BME280;5877;50.930;6.918;2022-10-30T13:43:31;101036.00;;;22.67;44.57
11643;BME280;5877;50.930;6.918;2022-10-30T13:52:01;100961.84;;;22.10;44.87
11643;BME280;5877;50.930;6.918;2022-10-30T13:57:25;101030.16;;;22.31;45.20
11643;BME280;5877;50.930;6.918;2022-10-30T14:03:33;101022.53;;;22.14;46.17
11643;BME280;5877;50.930;6.918;2022-10-30T14:06:11;101027.69;;;21.95;46.76
11643;BME280;5877;50.930;6.918;2022-10-30T14:11:43;100912.94;;;21.21;46.96
11643;BME280;5877;50.930;6.918;2022-10-30T14:17:10;100949.75;;;21.34;47.33
11643;BME280;5877;50.930;6.918;2022-10-30T14:22:39;101030.69;;;21.84;47.73
11643;BME280;5877;50.930;6.918;2022-10-30T14:25:15;101028.59;;;21.76;47.99
11643;BME280;5877;50.930;6.918;2022-10-30T14:27:42;100585.25;;;18.90;47.99
11643;BME280;5877;50.930;6.918;2022-10-30T14:30:17;101022.81;;;21.58;48.15
11643;BME280;5877;50.930;6.918;2022-10-30T14:32:49;100920.56;;;20.88;47.95
11643;BME280;5877;50.930;6.918;2022-10-30T14:35:43;100921.16;;;20.80;48.67
11643;BME280;5877;50.930;6.918;2022-10-30T14:40:45;100855.41;;;20.20;48.63
11643;BME280;5877;50.930;6.918;2022-10-30T14:43:24;101030.97;;;21.23;49.20
11643;BME280;5877;50.930;6.918;2022-10-30T14:45:56;100700.19;;;19.02;50.06
11643;BME280;5877;50.930;6.918;2022-10-30T14:48:45;100959.06;;;20.67;50.03
11643;BME280;5877;50.930;6.918;2022-10-30T14:51:36;101027.00;;;20.95;50.72
11643;BME280;5877;50.930;6.918;2022-10-30T14:54:32;101027.81;;;20.95;50.41
11643;BME280;5877;50.930;6.918;2022-10-30T14:57:02;101009.47;;;20.68;51.33
11643;BME280;5877;50.930;6.918;2022-10-30T14:59:31;101032.69;;;20.63;51.53
11643;BME280;5877;50.930;6.918;2022-10-30T15:02:08;100929.22;;;19.94;51.66
11643;BME280;5877;50.930;6.918;2022-10-30T15:07:25;100872.66;;;19.41;51.60
11643;BME280;5877;50.930;6.918;2022-10-30T15:15:31;101043.59;;;20.26;52.43
11643;BME280;5877;50.930;6.918;2022-10-30T15:18:02;100979.28;;;19.82;52.33
11643;BME280;5877;50.930;6.918;2022-10-30T15:20:31;100931.00;;;19.48;52.72
11643;BME280;5877;50.930;6.918;2022-10-30T15:25:49;101040.09;;;20.10;52.28
11643;BME280;5877;50.930;6.918;2022-10-30T15:28:24;101026.75;;;19.95;51.82